Time;durP1;ratioP1;P1;durP2;ratioP2;P2;SDS_P1;SDS_P2;PMS_P1;PMS_P2;Temp;Humidity;BMP_temperature;BMP_pressure;BME280_temperature;BME280_humidity;BME280_pressure;Samples;Min_cycle;Max_cycle;Signal;HPM_P1;HPM_P2
2022/07/31 00:00:10;;;;;;;4.00;1.30;;;;;;;;;;5025809;28;20051;-80
2022/07/31 00:02:56;;;;;;;3.75;1.40;;;;;;;;;;5038715;28;20123;-80
2022/07/31 00:05:42;;;;;;;3.08;1.50;;;;;;;;;;5023686;28;20453;-80
2022/07/31 00:08:28;;;;;;;2.90;1.38;;;;;;;;;;5023757;28;20041;-80
2022/07/31 00:11:13;;;;;;;2.65;1.27;;;;;;;;;;5038617;28;20040;-80
2022/07/31 00:13:59;;;;;;;4.50;1.40;;;;;;;;;;5023452;28;20041;-80
2022/07/31 00:16:45;;;;;;;3.92;1.58;;;;;;;;;;5023617;28;20045;-80
2022/07/31 00:19:30;;;;;;;4.32;1.95;;;;;;;;;;5023405;28;20037;-80
2022/07/31 00:22:16;;;;;;;2.45;1.40;;;;;;;;;;5023148;28;20048;-80
2022/07/31 00:25:02;;;;;;;3.70;1.48;;;;;;;;;;5038100;28;20045;-80
2022/07/31 00:27:48;;;;;;;2.95;1.40;;;;;;;;;;5037935;28;20033;-80
2022/07/31 00:30:33;;;;;;;4.25;1.75;;;;;;;;;;5037096;28;20052;-80
2022/07/31 00:33:19;;;;;;;3.33;1.85;;;;;;;;;;5038260;28;20052;-80
2022/07/31 00:36:05;;;;;;;4.03;1.50;;;;;;;;;;5037920;28;20091;-80
2022/07/31 00:38:51;;;;;;;2.47;1.65;;;;;;;;;;5023459;28;20029;-80
2022/07/31 00:41:38;;;;;;;4.03;1.52;;;;;;;;;;5023266;28;20048;-80
2022/07/31 00:44:24;;;;;;;3.88;1.52;;;;;;;;;;5038127;28;20034;-80
2022/07/31 00:47:10;;;;;;;4.05;1.65;;;;;;;;;;5024715;28;20049;-81
2022/07/31 00:49:56;;;;;;;3.45;1.52;;;;;;;;;;5051362;28;20510;-80
2022/07/31 00:52:42;;;;;;;3.90;1.55;;;;;;;;;;5038267;28;20037;-81
2022/07/31 00:55:27;;;;;;;2.70;1.58;;;;;;;;;;5038001;28;20033;-81
2022/07/31 00:58:13;;;;;;;3.35;1.38;;;;;;;;;;5037828;28;20041;-80
2022/07/31 01:00:59;;;;;;;3.08;1.70;;;;;;;;;;5022891;28;20045;-80
2022/07/31 01:03:44;;;;;;;3.33;1.30;;;;;;;;;;5037460;28;20514;-80
2022/07/31 01:06:30;;;;;;;2.58;1.35;;;;;;;;;;5037745;28;20037;-80
2022/07/31 01:09:16;;;;;;;3.47;1.52;;;;;;;;;;5024876;28;20041;-80
2022/07/31 01:12:06;;;;;;;2.72;1.27;;;;;;;;;;5037920;28;20033;-80
2022/07/31 01:14:55;;;;;;;3.05;1.25;;;;;;;;;;5037666;28;20036;-80
2022/07/31 01:17:41;;;;;;;3.58;1.65;;;;;;;;;;5023125;28;20533;-80
2022/07/31 01:20:27;;;;;;;2.88;1.10;;;;;;;;;;5036207;28;20541;-80
2022/07/31 01:23:18;;;;;;;3.20;1.20;;;;;;;;;;5037637;28;20076;-80
2022/07/31 01:26:17;;;;;;;2.92;1.30;;;;;;;;;;5037649;28;20044;-80
2022/07/31 01:29:13;;;;;;;2.45;1.05;;;;;;;;;;5037839;28;20435;-80
2022/07/31 01:32:02;;;;;;;3.17;1.13;;;;;;;;;;5051155;28;20427;-80
2022/07/31 01:34:53;;;;;;;2.63;1.65;;;;;;;;;;5036782;28;20064;-80
2022/07/31 01:37:52;;;;;;;3.08;1.10;;;;;;;;;;5022625;28;20043;-80
2022/07/31 01:40:44;;;;;;;2.47;1.00;;;;;;;;;;5036451;28;20041;-81
2022/07/31 01:43:36;;;;;;;2.85;1.25;;;;;;;;;;5022299;28;20087;-80
2022/07/31 01:46:22;;;;;;;2.05;1.20;;;;;;;;;;5022427;28;20044;-80
2022/07/31 01:49:08;;;;;;;2.78;1.02;;;;;;;;;;5021602;28;20057;-80
2022/07/31 01:51:54;;;;;;;2.97;1.20;;;;;;;;;;5022148;28;20037;-80
2022/07/31 01:54:39;;;;;;;1.65;0.88;;;;;;;;;;5023675;28;20115;-80
2022/07/31 01:57:25;;;;;;;1.40;0.80;;;;;;;;;;5024399;28;20048;-80
2022/07/31 02:00:11;;;;;;;1.90;0.90;;;;;;;;;;5022041;28;20044;-80
2022/07/31 02:02:57;;;;;;;1.85;0.80;;;;;;;;;;5035558;28;20116;-80
2022/07/31 02:05:43;;;;;;;3.25;0.88;;;;;;;;;;5023585;28;20056;-80
2022/07/31 02:08:29;;;;;;;2.50;0.90;;;;;;;;;;5036856;28;20358;-80
2022/07/31 02:11:15;;;;;;;2.40;0.82;;;;;;;;;;5021858;28;20411;-80
2022/07/31 02:14:01;;;;;;;3.30;1.23;;;;;;;;;;5036656;28;20041;-80
2022/07/31 02:16:48;;;;;;;2.33;1.10;;;;;;;;;;5021517;28;20526;-80
2022/07/31 02:19:35;;;;;;;2.38;1.00;;;;;;;;;;5021938;28;20083;-80
2022/07/31 02:22:20;;;;;;;1.10;0.60;;;;;;;;;;5021796;28;20033;-80
2022/07/31 02:25:06;;;;;;;2.05;0.57;;;;;;;;;;5021635;28;20033;-80
2022/07/31 02:27:54;;;;;;;1.17;0.50;;;;;;;;;;5022516;28;20068;-80
2022/07/31 02:30:41;;;;;;;1.30;0.60;;;;;;;;;;5036310;28;20048;-80
2022/07/31 02:33:27;;;;;;;1.52;0.70;;;;;;;;;;5036755;28;20033;-80
2022/07/31 02:36:13;;;;;;;2.00;0.88;;;;;;;;;;5021755;28;20044;-80
2022/07/31 02:38:59;;;;;;;2.08;0.60;;;;;;;;;;5036138;28;20086;-80
2022/07/31 02:41:45;;;;;;;1.85;0.80;;;;;;;;;;5023712;28;20079;-80
2022/07/31 02:44:33;;;;;;;2.05;0.73;;;;;;;;;;5021865;28;20098;-80
2022/07/31 02:47:19;;;;;;;1.67;0.80;;;;;;;;;;5035828;28;20125;-80
2022/07/31 02:50:05;;;;;;;1.63;0.55;;;;;;;;;;5036322;28;20049;-80
2022/07/31 02:52:51;;;;;;;2.70;0.75;;;;;;;;;;5023468;28;20098;-80
2022/07/31 02:55:37;;;;;;;1.95;0.60;;;;;;;;;;5025211;28;20033;-80
2022/07/31 02:58:23;;;;;;;3.15;0.60;;;;;;;;;;5025760;28;20068;-80
2022/07/31 03:01:09;;;;;;;1.58;0.60;;;;;;;;;;5039750;28;20041;-80
2022/07/31 03:03:55;;;;;;;1.38;0.63;;;;;;;;;;5039553;28;20037;-80
2022/07/31 03:06:40;;;;;;;1.80;0.60;;;;;;;;;;5025216;28;20045;-80
2022/07/31 03:09:27;;;;;;;3.33;0.75;;;;;;;;;;5037895;28;20037;-80
2022/07/31 03:12:12;;;;;;;1.65;0.93;;;;;;;;;;5025216;28;20045;-80
2022/07/31 03:14:58;;;;;;;1.02;0.50;;;;;;;;;;5027252;28;20037;-80
2022/07/31 03:17:44;;;;;;;3.40;0.93;;;;;;;;;;5024857;28;20400;-80
2022/07/31 03:20:30;;;;;;;1.48;0.60;;;;;;;;;;5039664;28;20045;-80
2022/07/31 03:23:15;;;;;;;0.90;0.60;;;;;;;;;;5039580;28;20037;-80
2022/07/31 03:26:02;;;;;;;1.25;0.40;;;;;;;;;;5039740;28;20093;-81
2022/07/31 03:28:47;;;;;;;2.70;0.50;;;;;;;;;;5039393;28;20076;-80
2022/07/31 03:31:33;;;;;;;2.05;0.80;;;;;;;;;;5039942;28;20045;-80
2022/07/31 03:34:19;;;;;;;2.60;0.77;;;;;;;;;;5025458;28;20127;-80
2022/07/31 03:37:05;;;;;;;2.33;0.50;;;;;;;;;;5025197;28;20041;-80
2022/07/31 03:39:50;;;;;;;1.13;0.50;;;;;;;;;;5024220;28;20083;-80
2022/07/31 03:42:36;;;;;;;1.52;0.70;;;;;;;;;;5053694;28;20228;-80
2022/07/31 03:45:22;;;;;;;1.38;0.55;;;;;;;;;;5025875;28;20033;-80
2022/07/31 03:48:07;;;;;;;1.40;0.68;;;;;;;;;;5052283;28;20145;-80
2022/07/31 03:50:53;;;;;;;2.55;0.60;;;;;;;;;;5023912;28;20037;-80
2022/07/31 03:53:39;;;;;;;0.85;0.30;;;;;;;;;;5024388;28;20045;-80
2022/07/31 03:56:25;;;;;;;2.17;0.70;;;;;;;;;;5025489;28;20043;-80
2022/07/31 03:59:11;;;;;;;1.80;0.70;;;;;;;;;;5023604;28;20040;-80
2022/07/31 04:01:56;;;;;;;1.00;0.50;;;;;;;;;;5038716;28;20033;-80
2022/07/31 04:04:43;;;;;;;0.95;0.40;;;;;;;;;;5024900;28;20044;-80
2022/07/31 04:07:28;;;;;;;1.98;0.40;;;;;;;;;;5023925;28;20033;-80
2022/07/31 04:10:14;;;;;;;1.27;0.77;;;;;;;;;;5052473;28;20029;-80
2022/07/31 04:13:00;;;;;;;1.85;1.00;;;;;;;;;;5025336;28;20071;-80
2022/07/31 04:15:46;;;;;;;2.35;0.70;;;;;;;;;;5038171;28;20049;-81
2022/07/31 04:18:31;;;;;;;1.88;0.73;;;;;;;;;;5037806;28;20110;-80
2022/07/31 04:21:17;;;;;;;2.97;0.95;;;;;;;;;;5025724;28;20033;-80
2022/07/31 04:24:03;;;;;;;1.48;0.70;;;;;;;;;;5038428;28;20045;-80
2022/07/31 04:26:49;;;;;;;1.70;0.77;;;;;;;;;;5039346;28;20041;-80
2022/07/31 04:29:35;;;;;;;1.95;0.70;;;;;;;;;;5038318;28;20033;-80
2022/07/31 04:32:21;;;;;;;2.15;0.73;;;;;;;;;;5038414;28;20068;-80
2022/07/31 04:35:07;;;;;;;2.70;0.77;;;;;;;;;;5025662;28;20071;-80
2022/07/31 04:37:53;;;;;;;1.83;0.80;;;;;;;;;;5024827;28;20040;-80
2022/07/31 04:40:39;;;;;;;3.03;0.93;;;;;;;;;;5037751;28;20048;-81
2022/07/31 04:43:25;;;;;;;1.25;0.50;;;;;;;;;;5037913;28;20033;-80
2022/07/31 04:46:10;;;;;;;1.15;0.65;;;;;;;;;;5025067;28;20052;-80
2022/07/31 04:48:56;;;;;;;2.45;0.82;;;;;;;;;;5022764;28;20029;-80
2022/07/31 04:51:42;;;;;;;1.70;0.60;;;;;;;;;;5038125;28;20495;-80
2022/07/31 04:54:28;;;;;;;2.17;0.77;;;;;;;;;;5024331;28;20076;-80
2022/07/31 04:57:14;;;;;;;2.08;0.60;;;;;;;;;;5037723;28;20074;-80
2022/07/31 05:00:00;;;;;;;1.58;0.57;;;;;;;;;;5037958;28;20041;-80
2022/07/31 05:02:45;;;;;;;1.25;0.73;;;;;;;;;;5022835;28;20060;-80
2022/07/31 05:05:31;;;;;;;2.17;0.60;;;;;;;;;;5024598;28;20033;-80
2022/07/31 05:08:17;;;;;;;3.38;1.25;;;;;;;;;;5022947;28;20071;-80
2022/07/31 05:11:21;;;;;;;1.77;0.82;;;;;;;;;;5023939;28;20079;-81
2022/07/31 05:14:09;;;;;;;1.83;0.80;;;;;;;;;;5040287;28;20040;-80
2022/07/31 05:16:54;;;;;;;1.13;0.60;;;;;;;;;;5036979;28;20563;-80
2022/07/31 05:19:40;;;;;;;1.38;0.60;;;;;;;;;;5037024;28;20083;-80
2022/07/31 05:22:26;;;;;;;1.45;0.70;;;;;;;;;;5022624;28;20037;-80
2022/07/31 05:25:11;;;;;;;2.40;0.90;;;;;;;;;;5037053;28;20047;-80
2022/07/31 05:27:57;;;;;;;1.83;0.52;;;;;;;;;;5049291;28;20041;-80
2022/07/31 05:30:43;;;;;;;1.00;0.50;;;;;;;;;;5037196;28;20088;-80
2022/07/31 05:33:28;;;;;;;1.73;0.73;;;;;;;;;;5022967;28;20032;-80
2022/07/31 05:36:14;;;;;;;2.80;0.65;;;;;;;;;;5022155;28;20415;-80
2022/07/31 05:39:00;;;;;;;1.55;0.60;;;;;;;;;;5023313;28;20123;-80
2022/07/31 05:41:47;;;;;;;2.67;1.25;;;;;;;;;;5036877;28;20042;-80
2022/07/31 05:44:33;;;;;;;1.52;0.65;;;;;;;;;;5025132;28;20041;-80
2022/07/31 05:47:19;;;;;;;1.55;0.60;;;;;;;;;;5021865;28;20099;-80
2022/07/31 05:50:06;;;;;;;1.25;0.60;;;;;;;;;;5036842;28;20048;-81
2022/07/31 05:52:51;;;;;;;1.15;0.50;;;;;;;;;;5035803;28;20083;-81
2022/07/31 05:55:38;;;;;;;1.42;0.50;;;;;;;;;;5022052;28;20033;-80
2022/07/31 05:58:23;;;;;;;1.27;0.52;;;;;;;;;;5023963;28;20033;-80
2022/07/31 06:01:09;;;;;;;1.98;0.95;;;;;;;;;;5021807;28;20040;-81
2022/07/31 06:03:55;;;;;;;2.78;0.40;;;;;;;;;;5021929;28;20037;-80
2022/07/31 06:06:41;;;;;;;1.10;0.70;;;;;;;;;;5022025;28;20504;-80
2022/07/31 06:09:26;;;;;;;1.00;0.50;;;;;;;;;;5036285;28;20041;-80
2022/07/31 06:12:12;;;;;;;1.27;0.57;;;;;;;;;;5036751;28;20040;-80
2022/07/31 06:14:59;;;;;;;1.25;0.50;;;;;;;;;;5036833;28;20568;-80
2022/07/31 06:17:45;;;;;;;1.50;0.40;;;;;;;;;;5035971;28;20053;-80
2022/07/31 06:20:31;;;;;;;1.90;0.82;;;;;;;;;;5036642;28;20041;-80
2022/07/31 06:23:16;;;;;;;0.93;0.40;;;;;;;;;;5035652;28;20057;-81
2022/07/31 06:26:02;;;;;;;1.52;0.60;;;;;;;;;;5021751;28;20084;-80
2022/07/31 06:28:48;;;;;;;1.35;0.30;;;;;;;;;;5037038;28;20043;-80
2022/07/31 06:31:34;;;;;;;1.38;0.50;;;;;;;;;;5026339;28;20037;-81
2022/07/31 06:34:19;;;;;;;1.52;0.60;;;;;;;;;;5027791;28;20344;-81
2022/07/31 06:37:05;;;;;;;1.52;0.47;;;;;;;;;;5040934;28;20033;-80
2022/07/31 06:39:51;;;;;;;0.30;0.20;;;;;;;;;;5040517;28;20045;-80
2022/07/31 06:42:37;;;;;;;1.30;0.40;;;;;;;;;;5040529;28;20120;-80
2022/07/31 06:45:23;;;;;;;1.63;0.60;;;;;;;;;;5040449;28;20529;-81
2022/07/31 06:48:13;;;;;;;0.88;0.40;;;;;;;;;;5025236;28;20049;-81
2022/07/31 06:50:59;;;;;;;1.67;0.50;;;;;;;;;;5027496;28;20037;-81
2022/07/31 06:53:44;;;;;;;2.33;0.40;;;;;;;;;;5025163;28;20048;-80
2022/07/31 06:56:30;;;;;;;0.95;0.43;;;;;;;;;;5025115;28;20033;-80
2022/07/31 06:59:16;;;;;;;0.45;0.30;;;;;;;;;;5027009;28;20136;-81
2022/07/31 07:02:02;;;;;;;1.55;0.40;;;;;;;;;;5039961;28;20047;-81
2022/07/31 07:04:48;;;;;;;2.47;0.40;;;;;;;;;;5025078;28;20574;-80
2022/07/31 07:07:35;;;;;;;0.55;0.30;;;;;;;;;;5039715;28;20032;-80
2022/07/31 07:10:20;;;;;;;0.70;0.40;;;;;;;;;;5024276;28;20045;-81
2022/07/31 07:13:06;;;;;;;1.30;0.50;;;;;;;;;;5040624;28;20033;-80
2022/07/31 07:15:52;;;;;;;1.05;0.20;;;;;;;;;;5025099;28;20506;-80
2022/07/31 07:18:38;;;;;;;1.63;0.50;;;;;;;;;;5039519;28;20041;-80
2022/07/31 07:21:23;;;;;;;1.75;0.57;;;;;;;;;;5038625;28;20423;-80
2022/07/31 07:24:09;;;;;;;0.57;0.35;;;;;;;;;;5039799;28;20514;-80
2022/07/31 07:26:55;;;;;;;0.95;0.45;;;;;;;;;;5024705;28;20049;-80
2022/07/31 07:29:41;;;;;;;1.13;0.30;;;;;;;;;;5024767;28;20052;-81
2022/07/31 07:32:26;;;;;;;1.83;0.60;;;;;;;;;;5039534;28;20036;-80
2022/07/31 07:35:12;;;;;;;0.45;0.30;;;;;;;;;;5023902;28;20388;-81
2022/07/31 07:37:58;;;;;;;1.63;0.65;;;;;;;;;;5024662;28;20423;-80
2022/07/31 07:40:44;;;;;;;1.55;0.40;;;;;;;;;;5026162;28;20129;-80
2022/07/31 07:43:29;;;;;;;0.40;0.30;;;;;;;;;;5038633;28;20045;-80
2022/07/31 07:46:15;;;;;;;1.55;0.50;;;;;;;;;;5024545;28;20419;-81
2022/07/31 07:49:01;;;;;;;2.92;0.40;;;;;;;;;;5037322;28;20125;-80
2022/07/31 07:51:47;;;;;;;1.58;0.43;;;;;;;;;;5024230;28;20041;-80
2022/07/31 07:54:33;;;;;;;1.52;0.38;;;;;;;;;;5024287;28;20040;-80
2022/07/31 07:57:19;;;;;;;1.02;0.25;;;;;;;;;;5024067;28;20040;-80
2022/07/31 08:00:06;;;;;;;1.20;0.35;;;;;;;;;;5025168;28;20051;-81
2022/07/31 08:02:52;;;;;;;0.90;0.28;;;;;;;;;;5026293;28;20033;-81
2022/07/31 08:05:38;;;;;;;0.88;0.38;;;;;;;;;;5023795;28;20041;-80
2022/07/31 08:08:23;;;;;;;0.98;0.40;;;;;;;;;;5026353;28;20131;-80
2022/07/31 08:11:09;;;;;;;0.50;0.30;;;;;;;;;;5023523;28;20049;-81
2022/07/31 08:13:55;;;;;;;0.60;0.30;;;;;;;;;;5024087;28;20404;-80
2022/07/31 08:16:41;;;;;;;1.05;0.40;;;;;;;;;;5024358;28;20407;-80
2022/07/31 08:19:26;;;;;;;1.10;0.38;;;;;;;;;;5022840;28;20025;-80
2022/07/31 08:22:12;;;;;;;0.38;0.25;;;;;;;;;;5024782;28;20047;-80
2022/07/31 08:24:58;;;;;;;0.82;0.30;;;;;;;;;;5038657;28;20045;-80
2022/07/31 08:27:44;;;;;;;0.68;0.30;;;;;;;;;;5025810;28;20052;-80
2022/07/31 08:30:29;;;;;;;0.90;0.40;;;;;;;;;;5038341;28;20053;-81
2022/07/31 08:33:15;;;;;;;1.10;0.43;;;;;;;;;;5036488;28;20072;-80
2022/07/31 08:36:01;;;;;;;0.73;0.40;;;;;;;;;;5038245;28;20506;-80
2022/07/31 08:38:50;;;;;;;1.27;0.50;;;;;;;;;;5024213;28;20388;-80
2022/07/31 08:41:37;;;;;;;0.52;0.30;;;;;;;;;;5025168;28;20033;-81
2022/07/31 08:44:23;;;;;;;1.58;0.75;;;;;;;;;;5025268;28;20112;-81
2022/07/31 08:47:11;;;;;;;1.35;0.40;;;;;;;;;;5052544;28;20041;-80
2022/07/31 08:49:56;;;;;;;2.08;0.50;;;;;;;;;;5024058;28;20033;-81
2022/07/31 08:52:44;;;;;;;1.50;0.45;;;;;;;;;;5037069;28;20064;-81
2022/07/31 08:55:30;;;;;;;0.60;0.30;;;;;;;;;;5023320;28;20037;-81
2022/07/31 08:58:17;;;;;;;1.00;0.50;;;;;;;;;;5023495;28;20094;-80
2022/07/31 09:01:03;;;;;;;1.08;0.40;;;;;;;;;;5022935;28;20072;-81
2022/07/31 09:03:49;;;;;;;0.70;0.35;;;;;;;;;;5022824;28;20052;-80
2022/07/31 09:06:35;;;;;;;0.95;0.40;;;;;;;;;;5022781;28;20094;-81
2022/07/31 09:09:21;;;;;;;0.90;0.40;;;;;;;;;;5022825;28;20510;-80
2022/07/31 09:12:07;;;;;;;2.47;0.52;;;;;;;;;;5037687;28;20499;-80
2022/07/31 09:14:52;;;;;;;1.42;0.40;;;;;;;;;;5022791;28;20036;-81
2022/07/31 09:17:38;;;;;;;0.98;0.40;;;;;;;;;;5037098;28;20048;-81
2022/07/31 09:20:25;;;;;;;0.55;0.32;;;;;;;;;;5022434;28;20064;-80
2022/07/31 09:23:11;;;;;;;0.73;0.30;;;;;;;;;;5023655;28;20033;-80
2022/07/31 09:26:03;;;;;;;0.95;0.43;;;;;;;;;;5023765;28;20036;-80
2022/07/31 09:28:50;;;;;;;1.80;0.40;;;;;;;;;;5024049;28;20048;-80
2022/07/31 09:31:37;;;;;;;1.08;0.40;;;;;;;;;;5036048;28;20066;-81
2022/07/31 09:34:26;;;;;;;0.90;0.60;;;;;;;;;;5022271;28;20041;-80
2022/07/31 09:37:13;;;;;;;2.42;0.80;;;;;;;;;;5022459;28;20098;-80
2022/07/31 09:39:59;;;;;;;0.68;0.40;;;;;;;;;;5023997;28;20086;-80
2022/07/31 09:42:47;;;;;;;0.80;0.47;;;;;;;;;;5050185;28;20033;-80
2022/07/31 09:45:33;;;;;;;0.98;0.43;;;;;;;;;;5022758;28;20116;-80
2022/07/31 09:48:18;;;;;;;1.40;0.55;;;;;;;;;;5022999;28;20486;-80
2022/07/31 09:51:06;;;;;;;0.90;0.50;;;;;;;;;;5035927;28;20040;-81
2022/07/31 09:53:56;;;;;;;1.77;0.70;;;;;;;;;;5037039;28;20087;-81
2022/07/31 09:56:43;;;;;;;1.13;0.40;;;;;;;;;;5023436;28;20524;-80
2022/07/31 09:59:29;;;;;;;1.05;0.60;;;;;;;;;;5022807;28;20056;-80
2022/07/31 10:02:15;;;;;;;0.90;0.40;;;;;;;;;;5036744;28;20036;-81
2022/07/31 10:05:00;;;;;;;1.02;0.50;;;;;;;;;;5021767;28;20076;-80
2022/07/31 10:07:46;;;;;;;0.88;0.50;;;;;;;;;;5036255;28;20119;-80
2022/07/31 10:10:32;;;;;;;1.05;0.40;;;;;;;;;;5036490;28;20499;-80
2022/07/31 10:13:18;;;;;;;1.92;0.98;;;;;;;;;;5036848;28;20499;-81
2022/07/31 10:16:04;;;;;;;1.05;0.75;;;;;;;;;;5021693;28;20049;-80
2022/07/31 10:18:58;;;;;;;1.10;0.52;;;;;;;;;;5021732;28;20041;-80
2022/07/31 10:21:50;;;;;;;2.80;0.60;;;;;;;;;;5036373;28;20120;-81
2022/07/31 10:24:39;;;;;;;1.35;0.68;;;;;;;;;;5036712;28;20112;-80
2022/07/31 10:27:26;;;;;;;0.98;0.60;;;;;;;;;;5023526;28;20094;-81
2022/07/31 10:30:12;;;;;;;0.90;0.50;;;;;;;;;;5050273;28;20045;-80
2022/07/31 10:32:58;;;;;;;0.80;0.47;;;;;;;;;;5021741;28;20037;-80
2022/07/31 10:35:49;;;;;;;1.70;0.68;;;;;;;;;;5022104;28;20136;-81
2022/07/31 10:38:52;;;;;;;1.17;0.57;;;;;;;;;;5022455;28;20099;-80
2022/07/31 10:42:03;;;;;;;1.13;0.52;;;;;;;;;;5050132;28;20066;-80
2022/07/31 10:44:54;;;;;;;2.13;0.80;;;;;;;;;;5050339;28;20123;-81
2022/07/31 10:47:52;;;;;;;1.73;0.93;;;;;;;;;;5036797;28;20080;-81
2022/07/31 10:50:37;;;;;;;1.90;0.75;;;;;;;;;;5036138;28;20056;-81
2022/07/31 10:53:24;;;;;;;1.40;0.63;;;;;;;;;;5022017;28;20126;-81
2022/07/31 10:56:11;;;;;;;1.55;0.88;;;;;;;;;;5021592;28;20037;-81
2022/07/31 10:58:57;;;;;;;2.08;0.77;;;;;;;;;;5021782;28;20045;-81
2022/07/31 11:01:49;;;;;;;1.95;0.70;;;;;;;;;;5021450;28;20827;-81
2022/07/31 11:04:36;;;;;;;;;;;;;;;;;;5036571;28;20396;-80
2022/07/31 11:07:21;;;;;;;1.02;0.57;;;;;;;;;;5037051;28;19912;-81
2022/07/31 11:10:14;;;;;;;0.93;0.52;;;;;;;;;;5021458;28;20040;-81
2022/07/31 11:13:06;;;;;;;1.80;1.10;;;;;;;;;;5036368;28;20487;-81
2022/07/31 11:16:04;;;;;;;1.45;0.80;;;;;;;;;;5037606;28;20045;-81
2022/07/31 11:19:03;;;;;;;1.88;0.60;;;;;;;;;;5024967;28;20037;-81
2022/07/31 11:21:48;;;;;;;1.40;0.80;;;;;;;;;;5024936;28;20415;-81
2022/07/31 11:24:34;;;;;;;1.48;0.60;;;;;;;;;;5025161;28;20395;-81
2022/07/31 11:27:30;;;;;;;1.42;0.90;;;;;;;;;;5039035;28;20495;-81
2022/07/31 11:30:16;;;;;;;1.40;0.70;;;;;;;;;;5025030;28;20045;-81
2022/07/31 11:33:02;;;;;;;2.20;0.70;;;;;;;;;;5024679;28;20083;-81
2022/07/31 11:35:47;;;;;;;1.52;0.70;;;;;;;;;;5024410;28;20041;-81
2022/07/31 11:38:33;;;;;;;2.08;0.70;;;;;;;;;;5024695;28;20052;-81
2022/07/31 11:41:22;;;;;;;1.20;0.68;;;;;;;;;;5039690;28;20472;-81
2022/07/31 11:44:07;;;;;;;1.25;0.82;;;;;;;;;;5039678;28;20045;-80
2022/07/31 11:46:53;;;;;;;1.08;0.77;;;;;;;;;;5052942;28;20076;-80
2022/07/31 11:49:39;;;;;;;1.90;0.90;;;;;;;;;;5052405;28;20056;-81
2022/07/31 11:52:25;;;;;;;2.15;1.15;;;;;;;;;;5026721;28;20036;-81
2022/07/31 11:55:14;;;;;;;1.25;0.65;;;;;;;;;;5024206;28;20041;-81
2022/07/31 11:58:00;;;;;;;2.22;0.75;;;;;;;;;;5024175;28;20037;-81
2022/07/31 12:00:47;;;;;;;0.82;0.60;;;;;;;;;;5026539;28;20494;-81
2022/07/31 12:03:35;;;;;;;1.45;0.80;;;;;;;;;;5038647;28;20029;-81
2022/07/31 12:06:21;;;;;;;2.30;0.93;;;;;;;;;;5024163;28;20436;-81
2022/07/31 12:09:07;;;;;;;2.30;0.77;;;;;;;;;;5025432;28;20029;-81
2022/07/31 12:11:52;;;;;;;1.30;0.80;;;;;;;;;;5024774;28;20120;-81
2022/07/31 12:14:38;;;;;;;1.17;0.68;;;;;;;;;;5025920;28;20036;-81
2022/07/31 12:17:24;;;;;;;1.52;0.70;;;;;;;;;;5024221;28;20477;-81
2022/07/31 12:20:10;;;;;;;1.45;0.80;;;;;;;;;;5023700;28;20446;-81
2022/07/31 12:22:59;;;;;;;1.42;0.73;;;;;;;;;;5051518;28;20037;-81
2022/07/31 12:25:45;;;;;;;2.50;0.98;;;;;;;;;;5025081;28;20037;-81
2022/07/31 12:28:31;;;;;;;1.17;0.70;;;;;;;;;;5038773;28;20049;-81
2022/07/31 12:31:16;;;;;;;1.35;0.75;;;;;;;;;;5023266;28;20047;-81
2022/07/31 12:34:02;;;;;;;1.67;1.10;;;;;;;;;;5023662;28;20045;-81
2022/07/31 12:36:56;;;;;;;1.13;0.60;;;;;;;;;;5025139;28;20083;-81
2022/07/31 12:39:42;;;;;;;1.67;0.80;;;;;;;;;;5037581;28;20408;-81
2022/07/31 12:42:33;;;;;;;1.23;0.70;;;;;;;;;;5051943;28;20114;-81
2022/07/31 12:45:35;;;;;;;1.50;0.90;;;;;;;;;;5026334;28;20131;-81
2022/07/31 12:48:20;;;;;;;2.00;0.90;;;;;;;;;;5036639;28;20136;-81
2022/07/31 12:51:06;;;;;;;1.10;0.60;;;;;;;;;;5037935;28;20044;-81
2022/07/31 12:53:52;;;;;;;1.42;0.80;;;;;;;;;;5023397;28;20045;-81
2022/07/31 12:56:38;;;;;;;1.52;0.98;;;;;;;;;;5022849;28;20048;-81
2022/07/31 12:59:24;;;;;;;1.35;0.90;;;;;;;;;;5038032;28;20056;-81
2022/07/31 13:02:10;;;;;;;1.17;0.70;;;;;;;;;;5022877;28;20033;-81
2022/07/31 13:04:55;;;;;;;1.17;0.77;;;;;;;;;;5037251;28;20488;-81
2022/07/31 13:07:41;;;;;;;1.85;0.77;;;;;;;;;;5023390;28;20041;-81
2022/07/31 13:10:27;;;;;;;1.35;0.98;;;;;;;;;;5022321;28;20059;-81
2022/07/31 13:13:13;;;;;;;1.23;0.80;;;;;;;;;;5037400;28;20515;-80
2022/07/31 13:15:59;;;;;;;1.83;1.00;;;;;;;;;;5037387;28;20503;-81
2022/07/31 13:18:45;;;;;;;1.52;0.85;;;;;;;;;;5022079;28;20095;-81
2022/07/31 13:21:31;;;;;;;1.67;0.70;;;;;;;;;;5037516;28;20049;-81
2022/07/31 13:24:18;;;;;;;1.20;0.70;;;;;;;;;;5023611;28;20065;-80
2022/07/31 13:27:04;;;;;;;2.22;0.80;;;;;;;;;;5035409;28;20071;-81
2022/07/31 13:29:49;;;;;;;1.38;0.63;;;;;;;;;;5021995;28;20503;-81
2022/07/31 13:32:35;;;;;;;1.83;0.90;;;;;;;;;;5024447;28;20385;-81
2022/07/31 13:35:24;;;;;;;1.30;0.88;;;;;;;;;;5022147;28;20569;-81
2022/07/31 13:38:12;;;;;;;1.58;0.90;;;;;;;;;;5036093;28;20124;-81
2022/07/31 13:44:02;;;;;;;2.53;0.80;;;;;;;;;;5050343;28;20033;-81
2022/07/31 13:46:47;;;;;;;1.38;0.80;;;;;;;;;;5022457;28;20440;-81
2022/07/31 13:49:33;;;;;;;2.13;1.15;;;;;;;;;;5021580;28;20029;-81
2022/07/31 13:52:19;;;;;;;1.33;0.85;;;;;;;;;;5021927;28;20048;-80
2022/07/31 13:55:05;;;;;;;1.67;0.95;;;;;;;;;;5023860;28;20087;-81
2022/07/31 13:57:51;;;;;;;2.05;0.93;;;;;;;;;;5021093;28;20041;-81
2022/07/31 14:00:36;;;;;;;1.00;0.55;;;;;;;;;;5051030;28;20041;-81
2022/07/31 14:03:22;;;;;;;2.15;0.98;;;;;;;;;;5036488;28;20045;-81
2022/07/31 14:06:08;;;;;;;2.60;0.85;;;;;;;;;;5021808;28;20079;-81
2022/07/31 14:08:54;;;;;;;1.75;1.00;;;;;;;;;;5036253;28;20037;-81
2022/07/31 14:11:39;;;;;;;1.80;0.98;;;;;;;;;;5036379;28;20037;-81
2022/07/31 14:14:25;;;;;;;1.75;0.70;;;;;;;;;;5021816;28;20041;-81
2022/07/31 14:17:11;;;;;;;1.33;0.80;;;;;;;;;;5023153;28;20099;-81
2022/07/31 14:19:57;;;;;;;1.95;1.08;;;;;;;;;;5022287;28;20124;-81
2022/07/31 14:22:42;;;;;;;1.55;0.80;;;;;;;;;;5022212;28;20510;-81
2022/07/31 14:25:29;;;;;;;1.58;0.82;;;;;;;;;;5035995;28;20047;-81
2022/07/31 14:28:15;;;;;;;1.40;0.85;;;;;;;;;;5048139;28;20063;-81
2022/07/31 14:31:00;;;;;;;1.45;0.93;;;;;;;;;;5021336;28;20049;-80
2022/07/31 14:33:46;;;;;;;1.92;1.02;;;;;;;;;;5021666;28;20041;-81
2022/07/31 14:36:32;;;;;;;3.60;1.77;;;;;;;;;;5036490;28;20041;-81
2022/07/31 14:39:18;;;;;;;2.03;0.98;;;;;;;;;;5021275;28;20037;-81
2022/07/31 14:42:03;;;;;;;2.20;1.33;;;;;;;;;;5036612;28;20053;-81
2022/07/31 14:44:49;;;;;;;2.08;1.10;;;;;;;;;;5021394;28;20052;-81
2022/07/31 14:47:35;;;;;;;1.45;0.88;;;;;;;;;;5020977;28;20083;-81
2022/07/31 14:50:21;;;;;;;1.83;0.90;;;;;;;;;;5022648;28;20485;-81
2022/07/31 14:53:08;;;;;;;1.85;0.80;;;;;;;;;;5027062;28;20037;-81
2022/07/31 14:55:54;;;;;;;2.55;0.80;;;;;;;;;;5040265;28;20041;-81
2022/07/31 14:58:39;;;;;;;1.55;0.98;;;;;;;;;;5024828;28;20393;-80
2022/07/31 15:01:25;;;;;;;1.70;0.90;;;;;;;;;;5025804;28;20041;-82
2022/07/31 15:04:11;;;;;;;3.30;1.23;;;;;;;;;;5025034;28;20033;-86
2022/07/31 15:06:58;;;;;;;2.08;1.20;;;;;;;;;;5024580;28;20079;-83
2022/07/31 15:09:44;;;;;;;2.97;1.55;;;;;;;;;;5027544;28;20045;-84
2022/07/31 15:12:30;;;;;;;3.58;1.30;;;;;;;;;;5025459;28;20040;-83
2022/07/31 15:15:17;;;;;;;3.42;1.40;;;;;;;;;;5026707;28;20415;-84
2022/07/31 15:18:02;;;;;;;2.13;1.38;;;;;;;;;;5025225;28;20127;-83
2022/07/31 15:20:48;;;;;;;2.92;1.55;;;;;;;;;;5025251;28;20044;-83
2022/07/31 15:23:34;;;;;;;2.83;1.65;;;;;;;;;;5025317;28;20041;-84
2022/07/31 15:26:20;;;;;;;5.30;1.90;;;;;;;;;;5025041;28;20033;-83
2022/07/31 15:29:06;;;;;;;2.33;1.30;;;;;;;;;;5025671;28;20432;-83
2022/07/31 15:31:51;;;;;;;1.92;1.02;;;;;;;;;;5025409;28;20037;-82
2022/07/31 15:34:37;;;;;;;1.85;1.00;;;;;;;;;;5025830;28;20072;-83
2022/07/31 15:37:23;;;;;;;2.47;1.10;;;;;;;;;;5026543;28;20045;-83
2022/07/31 15:40:10;;;;;;;2.20;1.15;;;;;;;;;;5009049;28;20428;-82
2022/07/31 15:42:56;;;;;;;3.08;0.80;;;;;;;;;;5018146;28;20044;-82
2022/07/31 15:45:42;;;;;;;3.83;1.30;;;;;;;;;;5018642;28;20518;-82
2022/07/31 15:48:28;;;;;;;2.25;0.80;;;;;;;;;;5019113;28;20061;-82
2022/07/31 15:51:14;;;;;;;1.77;0.75;;;;;;;;;;5023932;28;20083;-81
2022/07/31 15:54:00;;;;;;;3.58;0.85;;;;;;;;;;5021456;28;20021;-82
2022/07/31 15:56:46;;;;;;;2.38;1.00;;;;;;;;;;5011696;28;20095;-81
2022/07/31 15:59:31;;;;;;;3.00;1.20;;;;;;;;;;5010719;28;20470;-81
2022/07/31 16:02:17;;;;;;;4.75;1.02;;;;;;;;;;5009652;28;20044;-81
2022/07/31 16:05:06;;;;;;;1.58;0.60;;;;;;;;;;5008068;28;20037;-81
2022/07/31 16:07:52;;;;;;;2.30;1.02;;;;;;;;;;5022910;28;20126;-81
2022/07/31 16:10:38;;;;;;;1.88;0.63;;;;;;;;;;5018302;28;20042;-81
2022/07/31 16:13:24;;;;;;;1.73;0.55;;;;;;;;;;5010728;28;20415;-80
2022/07/31 16:16:10;;;;;;;1.75;0.90;;;;;;;;;;5022798;28;20045;-81
2022/07/31 16:18:55;;;;;;;1.83;0.52;;;;;;;;;;5014830;28;20037;-81
2022/07/31 16:21:41;;;;;;;2.58;0.88;;;;;;;;;;5018505;28;20048;-81
2022/07/31 16:24:27;;;;;;;1.55;0.77;;;;;;;;;;5033894;28;20032;-81
2022/07/31 16:27:13;;;;;;;2.15;0.60;;;;;;;;;;5011816;28;20099;-81
2022/07/31 16:29:59;;;;;;;1.75;0.75;;;;;;;;;;5011414;28;20041;-81
2022/07/31 16:32:44;;;;;;;2.70;0.70;;;;;;;;;;5011019;28;20037;-81
2022/07/31 16:35:33;;;;;;;2.28;0.47;;;;;;;;;;5009112;28;20037;-80
2022/07/31 16:38:19;;;;;;;2.85;0.60;;;;;;;;;;5027093;28;20586;-81
2022/07/31 16:41:05;;;;;;;4.13;1.98;;;;;;;;;;5018437;28;20033;-81